sensor_id;sensor_type;location;lat;lon;timestamp;pressure;altitude;pressure_sealevel;temperature;humidity
54512;BME280;40419;47.438;19.026;2023-06-10T00:01:34;99372.47;;;17.31;100.00
54512;BME280;40419;47.438;19.026;2023-06-10T00:04:02;99372.97;;;17.28;100.00
54512;BME280;40419;47.438;19.026;2023-06-10T00:06:30;99372.94;;;17.23;100.00
54512;BME280;40419;47.438;19.026;2023-06-10T00:09:07;99374.84;;;17.22;100.00
54512;BME280;40419;47.438;19.026;2023-06-10T00:11:40;99371.66;;;17.30;100.00
54512;BME280;40419;47.438;19.026;2023-06-10T00:14:06;99369.72;;;17.31;100.00
54512;BME280;40419;47.438;19.026;2023-06-10T00:16:36;99370.00;;;17.29;100.00
54512;BME280;40419;47.438;19.026;2023-06-10T00:19:06;99368.28;;;17.23;100.00
54512;BME280;40419;47.438;19.026;2023-06-10T00:21:34;99375.63;;;17.17;100.00
54512;BME280;40419;47.438;19.026;2023-06-10T00:24:08;99363.53;;;17.13;100.00
54512;BME280;40419;47.438;19.026;2023-06-10T00:26:40;99359.16;;;17.12;100.00
54512;BME280;40419;47.438;19.026;2023-06-10T00:29:11;99366.59;;;17.17;100.00
54512;BME280;40419;47.438;19.026;2023-06-10T00:31:44;99361.69;;;17.19;100.00
54512;BME280;40419;47.438;19.026;2023-06-10T00:34:10;99354.31;;;17.20;100.00
54512;BME280;40419;47.438;19.026;2023-06-10T00:36:38;99367.41;;;17.17;100.00
54512;BME280;40419;47.438;19.026;2023-06-10T00:39:06;99365.19;;;17.14;100.00
54512;BME280;40419;47.438;19.026;2023-06-10T00:41:38;99372.56;;;17.14;100.00
54512;BME280;40419;47.438;19.026;2023-06-10T00:44:08;99365.72;;;17.11;100.00
54512;BME280;40419;47.438;19.026;2023-06-10T00:46:36;99372.25;;;17.10;100.00
54512;BME280;40419;47.438;19.026;2023-06-10T00:49:04;99375.06;;;17.15;100.00
54512;BME280;40419;47.438;19.026;2023-06-10T00:51:29;99371.81;;;17.18;100.00
54512;BME280;40419;47.438;19.026;2023-06-10T00:54:01;99364.94;;;17.16;100.00
54512;BME280;40419;47.438;19.026;2023-06-10T00:56:27;99384.06;;;17.16;100.00
54512;BME280;40419;47.438;19.026;2023-06-10T00:58:58;99384.34;;;17.14;100.00
54512;BME280;40419;47.438;19.026;2023-06-10T01:01:31;99381.91;;;17.18;100.00
54512;BME280;40419;47.438;19.026;2023-06-10T01:04:01;99388.88;;;17.04;100.00
54512;BME280;40419;47.438;19.026;2023-06-10T01:11:47;99380.41;;;17.05;100.00
54512;BME280;40419;47.438;19.026;2023-06-10T01:14:16;99386.09;;;16.98;100.00
54512;BME280;40419;47.438;19.026;2023-06-10T01:16:46;99384.94;;;16.94;100.00
54512;BME280;40419;47.438;19.026;2023-06-10T01:19:12;99391.25;;;16.95;100.00
54512;BME280;40419;47.438;19.026;2023-06-10T01:21:39;99388.25;;;16.96;100.00
54512;BME280;40419;47.438;19.026;2023-06-10T01:24:05;99383.00;;;16.90;100.00
54512;BME280;40419;47.438;19.026;2023-06-10T01:26:38;99384.31;;;16.87;100.00
54512;BME280;40419;47.438;19.026;2023-06-10T01:29:21;99386.47;;;16.85;100.00
54512;BME280;40419;47.438;19.026;2023-06-10T01:32:07;99382.56;;;16.81;100.00
54512;BME280;40419;47.438;19.026;2023-06-10T01:34:39;99384.53;;;16.86;100.00
54512;BME280;40419;47.438;19.026;2023-06-10T01:37:13;99389.44;;;16.83;100.00
54512;BME280;40419;47.438;19.026;2023-06-10T01:39:51;99385.06;;;16.82;100.00
54512;BME280;40419;47.438;19.026;2023-06-10T01:42:17;99377.09;;;16.81;100.00
54512;BME280;40419;47.438;19.026;2023-06-10T01:44:48;99383.66;;;16.80;100.00
54512;BME280;40419;47.438;19.026;2023-06-10T01:47:15;99385.63;;;16.84;100.00
54512;BME280;40419;47.438;19.026;2023-06-10T01:49:44;99386.13;;;16.81;100.00
54512;BME280;40419;47.438;19.026;2023-06-10T01:52:12;99376.13;;;16.87;100.00
54512;BME280;40419;47.438;19.026;2023-06-10T01:54:38;99378.69;;;16.77;100.00
54512;BME280;40419;47.438;19.026;2023-06-10T01:57:04;99373.69;;;16.69;100.00
54512;BME280;40419;47.438;19.026;2023-06-10T01:59:38;99380.19;;;16.62;100.00
54512;BME280;40419;47.438;19.026;2023-06-10T02:02:09;99378.47;;;16.56;100.00
54512;BME280;40419;47.438;19.026;2023-06-10T02:04:37;99378.63;;;16.50;100.00
54512;BME280;40419;47.438;19.026;2023-06-10T02:07:07;99382.22;;;16.50;100.00
54512;BME280;40419;47.438;19.026;2023-06-10T02:09:37;99385.44;;;16.47;100.00
54512;BME280;40419;47.438;19.026;2023-06-10T02:12:10;99383.78;;;16.46;100.00
54512;BME280;40419;47.438;19.026;2023-06-10T02:14:43;99378.00;;;16.42;100.00
54512;BME280;40419;47.438;19.026;2023-06-10T02:17:11;99384.47;;;16.36;100.00
54512;BME280;40419;47.438;19.026;2023-06-10T02:19:47;99378.13;;;16.30;100.00
54512;BME280;40419;47.438;19.026;2023-06-10T02:22:21;99395.91;;;16.33;100.00
54512;BME280;40419;47.438;19.026;2023-06-10T02:24:52;99379.19;;;16.29;100.00
54512;BME280;40419;47.438;19.026;2023-06-10T02:27:18;99387.66;;;16.28;100.00
54512;BME280;40419;47.438;19.026;2023-06-10T02:29:44;99394.53;;;16.30;100.00
54512;BME280;40419;47.438;19.026;2023-06-10T02:32:12;99388.47;;;16.28;100.00
54512;BME280;40419;47.438;19.026;2023-06-10T02:34:43;99380.28;;;16.28;100.00
54512;BME280;40419;47.438;19.026;2023-06-10T02:37:13;99377.88;;;16.32;100.00
54512;BME280;40419;47.438;19.026;2023-06-10T02:39:41;99381.75;;;16.36;100.00
54512;BME280;40419;47.438;19.026;2023-06-10T02:42:10;99379.19;;;16.29;100.00
54512;BME280;40419;47.438;19.026;2023-06-10T02:44:38;99379.72;;;16.26;100.00
54512;BME280;40419;47.438;19.026;2023-06-10T02:47:05;99390.13;;;16.29;100.00
54512;BME280;40419;47.438;19.026;2023-06-10T02:49:39;99387.06;;;16.26;100.00
54512;BME280;40419;47.438;19.026;2023-06-10T02:52:08;99387.06;;;16.26;100.00
54512;BME280;40419;47.438;19.026;2023-06-10T02:54:36;99397.75;;;16.27;100.00
54512;BME280;40419;47.438;19.026;2023-06-10T02:57:09;99395.91;;;16.33;100.00
54512;BME280;40419;47.438;19.026;2023-06-10T02:59:36;99396.00;;;16.38;100.00
54512;BME280;40419;47.438;19.026;2023-06-10T03:02:04;99393.25;;;16.38;100.00
54512;BME280;40419;47.438;19.026;2023-06-10T03:04:37;99393.38;;;16.48;100.00
54512;BME280;40419;47.438;19.026;2023-06-10T03:07:13;99399.09;;;16.47;100.00
54512;BME280;40419;47.438;19.026;2023-06-10T03:09:40;99390.28;;;16.40;100.00
54512;BME280;40419;47.438;19.026;2023-06-10T03:12:13;99396.41;;;16.30;100.00
54512;BME280;40419;47.438;19.026;2023-06-10T03:14:47;99394.91;;;16.39;100.00
54512;BME280;40419;47.438;19.026;2023-06-10T03:17:16;99391.34;;;16.39;100.00
54512;BME280;40419;47.438;19.026;2023-06-10T03:19:45;99394.31;;;16.37;100.00
54512;BME280;40419;47.438;19.026;2023-06-10T03:22:16;99395.09;;;16.33;100.00
54512;BME280;40419;47.438;19.026;2023-06-10T03:24:57;99396.16;;;16.32;100.00
54512;BME280;40419;47.438;19.026;2023-06-10T03:27:28;99400.41;;;16.22;100.00
54512;BME280;40419;47.438;19.026;2023-06-10T03:29:59;99409.34;;;16.18;100.00
54512;BME280;40419;47.438;19.026;2023-06-10T03:32:27;99408.44;;;16.29;100.00
54512;BME280;40419;47.438;19.026;2023-06-10T03:34:55;99408.31;;;16.41;100.00
54512;BME280;40419;47.438;19.026;2023-06-10T03:37:26;99408.19;;;16.30;100.00
54512;BME280;40419;47.438;19.026;2023-06-10T03:39:54;99407.44;;;16.35;100.00
54512;BME280;40419;47.438;19.026;2023-06-10T03:42:22;99401.97;;;16.35;100.00
54512;BME280;40419;47.438;19.026;2023-06-10T03:44:50;99389.81;;;16.48;100.00
54512;BME280;40419;47.438;19.026;2023-06-10T03:47:20;99403.28;;;16.33;100.00
54512;BME280;40419;47.438;19.026;2023-06-10T03:49:48;99401.81;;;16.47;100.00
54512;BME280;40419;47.438;19.026;2023-06-10T03:52:17;99391.16;;;16.68;100.00
54512;BME280;40419;47.438;19.026;2023-06-10T03:54:45;99402.19;;;16.73;100.00
54512;BME280;40419;47.438;19.026;2023-06-10T03:57:13;99385.97;;;16.88;100.00
54512;BME280;40419;47.438;19.026;2023-06-10T03:59:38;99393.13;;;16.72;100.00
54512;BME280;40419;47.438;19.026;2023-06-10T04:02:07;99402.66;;;16.87;100.00
54512;BME280;40419;47.438;19.026;2023-06-10T04:04:34;99403.69;;;16.86;100.00
54512;BME280;40419;47.438;19.026;2023-06-10T04:07:03;99401.88;;;16.91;100.00
54512;BME280;40419;47.438;19.026;2023-06-10T04:09:35;99402.13;;;16.90;100.00
54512;BME280;40419;47.438;19.026;2023-06-10T04:12:04;99391.94;;;16.85;100.00
54512;BME280;40419;47.438;19.026;2023-06-10T04:14:34;99395.94;;;16.99;100.00
54512;BME280;40419;47.438;19.026;2023-06-10T04:17:04;99397.03;;;16.98;100.00
54512;BME280;40419;47.438;19.026;2023-06-10T04:19:32;99393.00;;;17.06;100.00
54512;BME280;40419;47.438;19.026;2023-06-10T04:22:01;99393.19;;;16.99;100.00
54512;BME280;40419;47.438;19.026;2023-06-10T04:24:28;99385.16;;;17.15;100.00
54512;BME280;40419;47.438;19.026;2023-06-10T04:26:56;99386.91;;;17.53;100.00
54512;BME280;40419;47.438;19.026;2023-06-10T04:29:21;99386.34;;;17.51;100.00
54512;BME280;40419;47.438;19.026;2023-06-10T04:31:47;99384.59;;;17.73;100.00
54512;BME280;40419;47.438;19.026;2023-06-10T04:34:17;99392.38;;;17.53;100.00
54512;BME280;40419;47.438;19.026;2023-06-10T04:36:45;99396.69;;;17.49;100.00
54512;BME280;40419;47.438;19.026;2023-06-10T04:39:11;99385.78;;;17.87;100.00
54512;BME280;40419;47.438;19.026;2023-06-10T04:41:37;99391.91;;;17.94;100.00
54512;BME280;40419;47.438;19.026;2023-06-10T04:44:05;99393.44;;;17.85;100.00
54512;BME280;40419;47.438;19.026;2023-06-10T04:46:32;99391.19;;;17.77;100.00
54512;BME280;40419;47.438;19.026;2023-06-10T04:49:02;99394.47;;;18.06;100.00
54512;BME280;40419;47.438;19.026;2023-06-10T04:51:29;99387.13;;;17.84;100.00
54512;BME280;40419;47.438;19.026;2023-06-10T04:53:58;99393.13;;;17.44;100.00
54512;BME280;40419;47.438;19.026;2023-06-10T04:56:26;99394.41;;;17.68;100.00
54512;BME280;40419;47.438;19.026;2023-06-10T04:58:56;99393.66;;;17.78;100.00
54512;BME280;40419;47.438;19.026;2023-06-10T05:01:27;99398.97;;;17.90;100.00
54512;BME280;40419;47.438;19.026;2023-06-10T05:03:55;99398.50;;;17.98;100.00
54512;BME280;40419;47.438;19.026;2023-06-10T05:06:20;99399.22;;;17.88;100.00
54512;BME280;40419;47.438;19.026;2023-06-10T05:08:46;99399.19;;;17.83;100.00
54512;BME280;40419;47.438;19.026;2023-06-10T05:11:12;99398.91;;;18.17;100.00
54512;BME280;40419;47.438;19.026;2023-06-10T05:13:37;99402.25;;;18.30;100.00
54512;BME280;40419;47.438;19.026;2023-06-10T05:16:08;99416.53;;;18.32;100.00
54512;BME280;40419;47.438;19.026;2023-06-10T05:18:34;99410.19;;;17.88;100.00
54512;BME280;40419;47.438;19.026;2023-06-10T05:21:03;99412.22;;;17.98;100.00
54512;BME280;40419;47.438;19.026;2023-06-10T05:23:31;99415.00;;;18.09;100.00
54512;BME280;40419;47.438;19.026;2023-06-10T05:25:59;99415.75;;;18.41;100.00
54512;BME280;40419;47.438;19.026;2023-06-10T05:28:25;99412.19;;;18.36;100.00
54512;BME280;40419;47.438;19.026;2023-06-10T05:30:53;99419.75;;;18.66;100.00
54512;BME280;40419;47.438;19.026;2023-06-10T05:33:19;99417.75;;;18.09;100.00
54512;BME280;40419;47.438;19.026;2023-06-10T05:35:47;99417.44;;;18.48;100.00
54512;BME280;40419;47.438;19.026;2023-06-10T05:38:14;99419.28;;;18.32;100.00
54512;BME280;40419;47.438;19.026;2023-06-10T05:40:40;99416.41;;;18.11;100.00
54512;BME280;40419;47.438;19.026;2023-06-10T05:43:05;99411.84;;;18.27;100.00
54512;BME280;40419;47.438;19.026;2023-06-10T05:45:35;99420.34;;;18.26;100.00
54512;BME280;40419;47.438;19.026;2023-06-10T05:48:07;99412.19;;;18.41;100.00
54512;BME280;40419;47.438;19.026;2023-06-10T05:50:33;99415.88;;;18.62;100.00
54512;BME280;40419;47.438;19.026;2023-06-10T05:53:05;99413.13;;;18.67;100.00
54512;BME280;40419;47.438;19.026;2023-06-10T05:55:34;99412.66;;;18.81;100.00
54512;BME280;40419;47.438;19.026;2023-06-10T05:58:04;99407.56;;;19.00;100.00
54512;BME280;40419;47.438;19.026;2023-06-10T06:00:32;99414.44;;;19.07;100.00
54512;BME280;40419;47.438;19.026;2023-06-10T06:03:00;99409.91;;;18.81;100.00
54512;BME280;40419;47.438;19.026;2023-06-10T06:05:31;99409.19;;;18.90;100.00
54512;BME280;40419;47.438;19.026;2023-06-10T06:08:10;99417.50;;;19.37;100.00
54512;BME280;40419;47.438;19.026;2023-06-10T06:10:36;99409.00;;;19.38;100.00
54512;BME280;40419;47.438;19.026;2023-06-10T06:13:02;99413.94;;;19.41;100.00
54512;BME280;40419;47.438;19.026;2023-06-10T06:15:32;99412.03;;;19.57;100.00
54512;BME280;40419;47.438;19.026;2023-06-10T06:17:58;99404.63;;;19.47;100.00
54512;BME280;40419;47.438;19.026;2023-06-10T06:20:23;99416.72;;;19.67;100.00
54512;BME280;40419;47.438;19.026;2023-06-10T06:22:51;99409.84;;;19.49;100.00
54512;BME280;40419;47.438;19.026;2023-06-10T06:25:20;99427.13;;;19.39;100.00
54512;BME280;40419;47.438;19.026;2023-06-10T06:27:48;99420.03;;;19.69;100.00
54512;BME280;40419;47.438;19.026;2023-06-10T06:30:15;99421.09;;;19.42;100.00
54512;BME280;40419;47.438;19.026;2023-06-10T06:32:43;99426.63;;;20.04;100.00
54512;BME280;40419;47.438;19.026;2023-06-10T06:35:09;99431.84;;;20.26;100.00
54512;BME280;40419;47.438;19.026;2023-06-10T06:37:35;99425.53;;;20.21;100.00
54512;BME280;40419;47.438;19.026;2023-06-10T06:40:16;99433.19;;;20.34;100.00
54512;BME280;40419;47.438;19.026;2023-06-10T06:42:44;99435.34;;;19.44;100.00
54512;BME280;40419;47.438;19.026;2023-06-10T06:45:24;99423.00;;;19.47;100.00
54512;BME280;40419;47.438;19.026;2023-06-10T06:47:52;99429.38;;;19.78;100.00
54512;BME280;40419;47.438;19.026;2023-06-10T06:50:28;99435.41;;;19.75;100.00
54512;BME280;40419;47.438;19.026;2023-06-10T06:52:53;99434.53;;;19.39;100.00
54512;BME280;40419;47.438;19.026;2023-06-10T06:55:19;99429.59;;;19.46;100.00
54512;BME280;40419;47.438;19.026;2023-06-10T06:57:46;99430.66;;;19.19;100.00
54512;BME280;40419;47.438;19.026;2023-06-10T07:00:15;99436.75;;;19.47;100.00
54512;BME280;40419;47.438;19.026;2023-06-10T07:02:40;99431.25;;;19.42;100.00
54512;BME280;40419;47.438;19.026;2023-06-10T07:05:08;99436.44;;;19.28;100.00
54512;BME280;40419;47.438;19.026;2023-06-10T07:07:34;99432.63;;;19.39;100.00
54512;BME280;40419;47.438;19.026;2023-06-10T07:10:00;99436.25;;;19.96;100.00
54512;BME280;40419;47.438;19.026;2023-06-10T07:12:30;99440.09;;;19.80;100.00
54512;BME280;40419;47.438;19.026;2023-06-10T07:14:58;99440.34;;;19.73;100.00
54512;BME280;40419;47.438;19.026;2023-06-10T07:17:24;99434.81;;;19.42;100.00
54512;BME280;40419;47.438;19.026;2023-06-10T07:19:49;99441.16;;;19.69;100.00
54512;BME280;40419;47.438;19.026;2023-06-10T07:22:19;99440.31;;;19.53;100.00
54512;BME280;40419;47.438;19.026;2023-06-10T07:24:51;99452.13;;;19.48;100.00
54512;BME280;40419;47.438;19.026;2023-06-10T07:27:24;99440.56;;;19.36;100.00
54512;BME280;40419;47.438;19.026;2023-06-10T07:29:51;99446.03;;;19.30;100.00
54512;BME280;40419;47.438;19.026;2023-06-10T07:32:19;99448.06;;;19.76;100.00
54512;BME280;40419;47.438;19.026;2023-06-10T07:34:47;99443.97;;;19.94;100.00
54512;BME280;40419;47.438;19.026;2023-06-10T07:37:15;99445.59;;;19.80;100.00
54512;BME280;40419;47.438;19.026;2023-06-10T07:39:40;99439.50;;;19.62;100.00
54512;BME280;40419;47.438;19.026;2023-06-10T07:42:09;99455.09;;;19.26;100.00
54512;BME280;40419;47.438;19.026;2023-06-10T07:44:35;99447.53;;;19.85;100.00
54512;BME280;40419;47.438;19.026;2023-06-10T07:47:01;99453.31;;;20.04;100.00
54512;BME280;40419;47.438;19.026;2023-06-10T07:49:31;99444.50;;;20.01;100.00
54512;BME280;40419;47.438;19.026;2023-06-10T07:51:57;99452.44;;;20.13;100.00
54512;BME280;40419;47.438;19.026;2023-06-10T07:54:25;99458.78;;;20.04;100.00
54512;BME280;40419;47.438;19.026;2023-06-10T07:56:51;99463.19;;;19.94;100.00
54512;BME280;40419;47.438;19.026;2023-06-10T07:59:19;99450.81;;;19.81;100.00
54512;BME280;40419;47.438;19.026;2023-06-10T08:01:44;99460.41;;;20.15;100.00
54512;BME280;40419;47.438;19.026;2023-06-10T08:04:13;99458.47;;;19.69;100.00
54512;BME280;40419;47.438;19.026;2023-06-10T08:06:40;99461.81;;;20.07;100.00
54512;BME280;40419;47.438;19.026;2023-06-10T08:09:06;99456.88;;;19.99;100.00
54512;BME280;40419;47.438;19.026;2023-06-10T08:11:32;99455.22;;;19.82;100.00
54512;BME280;40419;47.438;19.026;2023-06-10T08:14:02;99451.09;;;19.85;100.00
54512;BME280;40419;47.438;19.026;2023-06-10T08:16:30;99450.81;;;20.17;100.00
54512;BME280;40419;47.438;19.026;2023-06-10T08:18:55;99457.38;;;20.32;100.00
54512;BME280;40419;47.438;19.026;2023-06-10T08:21:26;99451.34;;;20.19;100.00
54512;BME280;40419;47.438;19.026;2023-06-10T08:23:56;99446.97;;;20.03;100.00
54512;BME280;40419;47.438;19.026;2023-06-10T08:26:24;99447.50;;;20.15;100.00
54512;BME280;40419;47.438;19.026;2023-06-10T08:28:52;99452.72;;;20.12;100.00
54512;BME280;40419;47.438;19.026;2023-06-10T08:31:18;99440.38;;;20.14;100.00
54512;BME280;40419;47.438;19.026;2023-06-10T08:33:43;99453.25;;;20.45;100.00
54512;BME280;40419;47.438;19.026;2023-06-10T08:36:11;99440.59;;;20.44;100.00
54512;BME280;40419;47.438;19.026;2023-06-10T08:38:37;99449.00;;;20.83;100.00
54512;BME280;40419;47.438;19.026;2023-06-10T08:41:07;99440.53;;;21.35;100.00
54512;BME280;40419;47.438;19.026;2023-06-10T08:43:43;99448.47;;;20.81;100.00
54512;BME280;40419;47.438;19.026;2023-06-10T08:46:13;99442.72;;;20.78;100.00
54512;BME280;40419;47.438;19.026;2023-06-10T08:48:45;99439.81;;;21.14;100.00
54512;BME280;40419;47.438;19.026;2023-06-10T08:51:13;99432.13;;;21.11;100.00
54512;BME280;40419;47.438;19.026;2023-06-10T08:53:48;99422.97;;;20.50;100.00
54512;BME280;40419;47.438;19.026;2023-06-10T08:56:16;99428.44;;;20.60;100.00
54512;BME280;40419;47.438;19.026;2023-06-10T08:58:45;99426.06;;;20.12;100.00
54512;BME280;40419;47.438;19.026;2023-06-10T09:01:15;99424.72;;;20.10;100.00
54512;BME280;40419;47.438;19.026;2023-06-10T09:03:42;99421.84;;;20.66;100.00
54512;BME280;40419;47.438;19.026;2023-06-10T09:06:15;99413.63;;;21.16;100.00
54512;BME280;40419;47.438;19.026;2023-06-10T09:08:42;99406.94;;;21.77;100.00
54512;BME280;40419;47.438;19.026;2023-06-10T09:11:07;99399.59;;;21.97;100.00
54512;BME280;40419;47.438;19.026;2023-06-10T09:13:33;99398.63;;;22.12;100.00
54512;BME280;40419;47.438;19.026;2023-06-10T09:16:01;99405.91;;;21.98;100.00
54512;BME280;40419;47.438;19.026;2023-06-10T09:18:34;99401.19;;;22.57;100.00
54512;BME280;40419;47.438;19.026;2023-06-10T09:21:05;99399.69;;;22.45;100.00
54512;BME280;40419;47.438;19.026;2023-06-10T09:23:33;99401.84;;;22.19;100.00
54512;BME280;40419;47.438;19.026;2023-06-10T09:25:59;99397.41;;;22.23;100.00
54512;BME280;40419;47.438;19.026;2023-06-10T09:28:29;99399.50;;;22.07;94.97
54512;BME280;40419;47.438;19.026;2023-06-10T09:31:06;99392.94;;;22.27;97.82
54512;BME280;40419;47.438;19.026;2023-06-10T09:33:33;99395.66;;;22.81;100.00
54512;BME280;40419;47.438;19.026;2023-06-10T09:36:02;99397.50;;;22.42;95.18
54512;BME280;40419;47.438;19.026;2023-06-10T09:38:37;99395.56;;;22.67;97.49
54512;BME280;40419;47.438;19.026;2023-06-10T09:41:05;99393.34;;;22.69;94.19
54512;BME280;40419;47.438;19.026;2023-06-10T09:43:41;99397.44;;;22.72;98.84
54512;BME280;40419;47.438;19.026;2023-06-10T09:46:19;99396.81;;;22.99;92.89
54512;BME280;40419;47.438;19.026;2023-06-10T09:48:48;99386.59;;;22.99;100.00
54512;BME280;40419;47.438;19.026;2023-06-10T09:51:16;99398.31;;;22.67;93.34
54512;BME280;40419;47.438;19.026;2023-06-10T09:53:55;99382.53;;;22.73;96.03
54512;BME280;40419;47.438;19.026;2023-06-10T09:56:32;99391.50;;;22.59;94.71
54512;BME280;40419;47.438;19.026;2023-06-10T09:59:03;99389.03;;;22.34;96.07
54512;BME280;40419;47.438;19.026;2023-06-10T10:01:31;99390.91;;;22.62;94.50
54512;BME280;40419;47.438;19.026;2023-06-10T10:04:05;99387.06;;;22.82;97.39
54512;BME280;40419;47.438;19.026;2023-06-10T10:06:38;99386.81;;;22.60;95.53
54512;BME280;40419;47.438;19.026;2023-06-10T10:09:08;99392.56;;;22.39;96.17
54512;BME280;40419;47.438;19.026;2023-06-10T10:11:36;99383.53;;;22.34;97.25
54512;BME280;40419;47.438;19.026;2023-06-10T10:14:06;99391.13;;;21.88;99.82
54512;BME280;40419;47.438;19.026;2023-06-10T10:16:42;99399.47;;;21.38;100.00
54512;BME280;40419;47.438;19.026;2023-06-10T10:19:13;99398.09;;;21.41;100.00
54512;BME280;40419;47.438;19.026;2023-06-10T10:21:56;99406.91;;;21.38;100.00
54512;BME280;40419;47.438;19.026;2023-06-10T10:24:41;99403.94;;;20.79;100.00
54512;BME280;40419;47.438;19.026;2023-06-10T10:27:14;99399.50;;;20.83;100.00
54512;BME280;40419;47.438;19.026;2023-06-10T10:29:46;99396.31;;;20.50;100.00
54512;BME280;40419;47.438;19.026;2023-06-10T10:32:18;99394.44;;;20.30;100.00
54512;BME280;40419;47.438;19.026;2023-06-10T10:37:39;99392.50;;;20.41;100.00
54512;BME280;40419;47.438;19.026;2023-06-10T10:40:08;99391.38;;;20.47;100.00
54512;BME280;40419;47.438;19.026;2023-06-10T10:42:38;99389.66;;;20.62;100.00
54512;BME280;40419;47.438;19.026;2023-06-10T10:45:08;99382.19;;;20.83;100.00
54512;BME280;40419;47.438;19.026;2023-06-10T10:47:37;99384.78;;;21.14;100.00
54512;BME280;40419;47.438;19.026;2023-06-10T10:50:15;99381.34;;;21.32;100.00
54512;BME280;40419;47.438;19.026;2023-06-10T10:55:26;99374.03;;;21.57;100.00
54512;BME280;40419;47.438;19.026;2023-06-10T10:58:08;99353.41;;;21.54;100.00
54512;BME280;40419;47.438;19.026;2023-06-10T11:00:37;99362.94;;;21.67;100.00
54512;BME280;40419;47.438;19.026;2023-06-10T11:08:00;99358.72;;;21.75;96.01
54512;BME280;40419;47.438;19.026;2023-06-10T11:10:39;99354.09;;;21.70;100.00
54512;BME280;40419;47.438;19.026;2023-06-10T11:13:12;99356.53;;;21.77;96.71
54512;BME280;40419;47.438;19.026;2023-06-10T11:15:43;99347.63;;;21.85;96.72
54512;BME280;40419;47.438;19.026;2023-06-10T11:18:29;99355.44;;;22.32;99.48
54512;BME280;40419;47.438;19.026;2023-06-10T11:21:04;99357.31;;;22.36;97.94
54512;BME280;40419;47.438;19.026;2023-06-10T11:23:34;99350.03;;;22.45;97.36
54512;BME280;40419;47.438;19.026;2023-06-10T11:29:04;99344.34;;;22.37;92.33
54512;BME280;40419;47.438;19.026;2023-06-10T11:34:05;99350.44;;;22.58;94.16
54512;BME280;40419;47.438;19.026;2023-06-10T11:36:38;99344.25;;;22.42;95.42
54512;BME280;40419;47.438;19.026;2023-06-10T11:39:08;99343.69;;;22.69;93.34
54512;BME280;40419;47.438;19.026;2023-06-10T11:41:40;99337.25;;;22.93;87.85
54512;BME280;40419;47.438;19.026;2023-06-10T11:44:13;99338.41;;;23.11;92.52
54512;BME280;40419;47.438;19.026;2023-06-10T11:46:43;99344.13;;;22.76;87.90
54512;BME280;40419;47.438;19.026;2023-06-10T11:49:11;99329.69;;;23.23;91.30
54512;BME280;40419;47.438;19.026;2023-06-10T11:51:38;99333.41;;;23.32;87.23
54512;BME280;40419;47.438;19.026;2023-06-10T11:54:06;99334.81;;;23.29;83.30
54512;BME280;40419;47.438;19.026;2023-06-10T11:56:35;99329.78;;;23.17;89.71
54512;BME280;40419;47.438;19.026;2023-06-10T11:59:05;99329.78;;;23.17;84.60
54512;BME280;40419;47.438;19.026;2023-06-10T12:01:41;99338.63;;;22.95;93.65
54512;BME280;40419;47.438;19.026;2023-06-10T12:04:14;99326.16;;;22.79;92.02
54512;BME280;40419;47.438;19.026;2023-06-10T12:14:56;99325.25;;;22.40;99.34
54512;BME280;40419;47.438;19.026;2023-06-10T12:19:57;99318.44;;;23.19;91.10
54512;BME280;40419;47.438;19.026;2023-06-10T12:22:23;99307.44;;;23.33;90.67
54512;BME280;40419;47.438;19.026;2023-06-10T12:24:58;99314.66;;;22.72;87.90
54512;BME280;40419;47.438;19.026;2023-06-10T12:27:30;99307.09;;;23.21;93.09
54512;BME280;40419;47.438;19.026;2023-06-10T12:29:56;99308.25;;;23.33;89.48
54512;BME280;40419;47.438;19.026;2023-06-10T12:32:40;99294.00;;;23.26;84.00
54512;BME280;40419;47.438;19.026;2023-06-10T12:35:10;99291.00;;;23.42;88.37
54512;BME280;40419;47.438;19.026;2023-06-10T12:37:40;99289.59;;;23.25;82.25
54512;BME280;40419;47.438;19.026;2023-06-10T12:40:12;99289.28;;;22.89;87.40
54512;BME280;40419;47.438;19.026;2023-06-10T12:42:41;99281.44;;;23.34;83.93
54512;BME280;40419;47.438;19.026;2023-06-10T12:45:07;99280.91;;;23.65;87.74
54512;BME280;40419;47.438;19.026;2023-06-10T12:47:38;99280.59;;;23.20;86.38
54512;BME280;40419;47.438;19.026;2023-06-10T12:50:05;99269.22;;;23.02;83.43
54512;BME280;40419;47.438;19.026;2023-06-10T12:52:34;99282.91;;;22.93;82.75
54512;BME280;40419;47.438;19.026;2023-06-10T12:55:02;99270.72;;;22.56;86.40
54512;BME280;40419;47.438;19.026;2023-06-10T12:57:29;99275.56;;;22.45;82.76
54512;BME280;40419;47.438;19.026;2023-06-10T12:59:59;99275.94;;;22.96;82.42
54512;BME280;40419;47.438;19.026;2023-06-10T13:02:31;99274.94;;;23.44;82.82
54512;BME280;40419;47.438;19.026;2023-06-10T13:04:57;99263.59;;;23.59;81.22
54512;BME280;40419;47.438;19.026;2023-06-10T13:07:30;99268.34;;;23.73;79.53
54512;BME280;40419;47.438;19.026;2023-06-10T13:09:55;99263.47;;;23.97;76.94
54512;BME280;40419;47.438;19.026;2023-06-10T13:12:26;99268.91;;;23.88;86.69
54512;BME280;40419;47.438;19.026;2023-06-10T13:14:56;99268.81;;;23.94;78.25
54512;BME280;40419;47.438;19.026;2023-06-10T13:17:24;99266.66;;;23.91;75.87
54512;BME280;40419;47.438;19.026;2023-06-10T13:19:55;99266.53;;;23.49;77.34
54512;BME280;40419;47.438;19.026;2023-06-10T13:22:21;99255.50;;;23.49;73.76
54512;BME280;40419;47.438;19.026;2023-06-10T13:24:46;99257.63;;;23.85;75.62
54512;BME280;40419;47.438;19.026;2023-06-10T13:27:12;99257.00;;;23.88;72.91